createdAt,value
2023-03-22T00:01:23.879Z,7.10
2023-03-22T00:03:52.791Z,6.63
2023-03-22T00:06:20.687Z,5.63
2023-03-22T00:08:52.544Z,5.57
2023-03-22T00:11:21.930Z,6.83
2023-03-22T00:13:52.704Z,6.23
2023-03-22T00:16:21.357Z,5.80
2023-03-22T00:18:48.494Z,6.80
2023-03-22T00:21:17.495Z,6.27
2023-03-22T00:23:45.640Z,6.20
2023-03-22T00:26:14.609Z,5.43
2023-03-22T00:28:43.816Z,4.10
2023-03-22T00:31:12.077Z,3.93
2023-03-22T00:33:39.372Z,3.87
2023-03-22T00:36:10.401Z,5.20
2023-03-22T00:38:44.102Z,5.83
2023-03-22T00:41:21.147Z,6.40
2023-03-22T00:43:50.212Z,6.03
2023-03-22T00:46:21.643Z,5.40
2023-03-22T00:48:49.615Z,6.10
2023-03-22T00:51:18.282Z,4.10
2023-03-22T00:53:45.768Z,3.37
2023-03-22T00:56:14.511Z,3.50
2023-03-22T00:58:46.197Z,3.93
2023-03-22T01:01:14.845Z,4.00
2023-03-22T01:03:43.979Z,4.30
2023-03-22T01:06:15.136Z,4.10
2023-03-22T01:08:43.053Z,4.47
2023-03-22T01:11:10.913Z,5.03
2023-03-22T01:13:38.668Z,6.03
2023-03-22T01:16:07.438Z,5.80
2023-03-22T01:18:36.000Z,5.80
2023-03-22T01:21:03.915Z,6.00
2023-03-22T01:23:32.547Z,5.30
2023-03-22T01:26:00.115Z,5.00
2023-03-22T01:28:28.574Z,5.23
2023-03-22T01:30:56.926Z,5.53
2023-03-22T01:33:24.315Z,5.27
2023-03-22T01:35:52.797Z,4.40
2023-03-22T01:38:20.702Z,4.93
2023-03-22T01:40:59.674Z,5.27
2023-03-22T01:43:30.047Z,5.17
2023-03-22T01:45:58.860Z,5.80
2023-03-22T01:48:46.371Z,5.73
2023-03-22T01:51:22.615Z,5.07
2023-03-22T01:54:22.087Z,4.27
2023-03-22T01:59:21.547Z,4.97
2023-03-22T02:02:04.569Z,4.83
2023-03-22T02:04:39.366Z,5.00
2023-03-22T02:07:15.835Z,5.03
2023-03-22T02:09:47.400Z,4.93
2023-03-22T02:12:33.960Z,5.37
2023-03-22T02:15:50.213Z,5.87
2023-03-22T02:19:11.212Z,5.70
2023-03-22T02:21:50.968Z,5.53
2023-03-22T02:24:36.582Z,5.37
2023-03-22T02:27:41.901Z,5.10
2023-03-22T02:30:24.387Z,4.80
2023-03-22T02:33:25.354Z,4.80
2023-03-22T02:36:26.273Z,4.37
2023-03-22T02:39:15.580Z,4.53
2023-03-22T02:42:26.131Z,4.90
2023-03-22T02:45:06.438Z,5.27
2023-03-22T02:47:38.716Z,5.53
2023-03-22T02:50:23.360Z,4.90
2023-03-22T02:53:05.098Z,5.00
2023-03-22T02:55:42.176Z,5.07
2023-03-22T02:58:18.626Z,5.13
2023-03-22T03:00:47.854Z,4.20
2023-03-22T03:03:19.252Z,4.70
2023-03-22T03:05:53.068Z,5.17
2023-03-22T03:08:22.061Z,5.20
2023-03-22T03:10:51.681Z,5.20
2023-03-22T03:13:20.344Z,4.67
2023-03-22T03:15:54.389Z,4.50
2023-03-22T03:18:45.444Z,5.07
2023-03-22T03:21:42.623Z,4.33
2023-03-22T03:24:35.546Z,4.33
2023-03-22T03:27:23.233Z,4.30
2023-03-22T03:29:52.151Z,5.17
2023-03-22T03:32:35.453Z,5.03
2023-03-22T03:35:27.777Z,5.20
2023-03-22T03:38:03.273Z,5.53
2023-03-22T03:40:35.497Z,6.13
2023-03-22T03:43:06.733Z,6.20
2023-03-22T03:45:36.353Z,8.50
2023-03-22T03:48:08.460Z,7.47
2023-03-22T03:50:38.694Z,7.73
2023-03-22T03:53:07.004Z,8.30
2023-03-22T03:55:34.403Z,8.73
2023-03-22T03:58:01.661Z,9.07
2023-03-22T04:00:28.927Z,8.60
2023-03-22T04:03:16.092Z,8.67
2023-03-22T04:06:06.645Z,9.47
2023-03-22T04:08:37.960Z,9.83
2023-03-22T04:11:06.519Z,9.07
2023-03-22T04:13:34.463Z,9.73
2023-03-22T04:16:06.825Z,9.40
2023-03-22T04:18:37.962Z,9.97
2023-03-22T04:21:08.673Z,9.60
2023-03-22T04:23:47.235Z,10.13
2023-03-22T04:26:16.210Z,10.13
2023-03-22T04:28:54.846Z,9.83
2023-03-22T04:31:22.710Z,9.47
2023-03-22T04:33:56.684Z,9.87
2023-03-22T04:36:53.139Z,9.67
2023-03-22T04:39:38.024Z,9.37
2023-03-22T04:42:24.037Z,9.70
2023-03-22T04:45:00.995Z,9.73
2023-03-22T04:47:28.384Z,9.90
2023-03-22T04:49:56.028Z,9.30
2023-03-22T04:52:23.391Z,9.10
2023-03-22T04:54:53.756Z,10.10
2023-03-22T04:57:21.567Z,10.43
2023-03-22T04:59:49.617Z,9.53
2023-03-22T05:02:17.445Z,9.53
2023-03-22T05:04:44.930Z,9.53
2023-03-22T05:07:21.815Z,8.90
2023-03-22T05:09:54.296Z,8.53
2023-03-22T05:12:22.808Z,8.23
2023-03-22T05:14:53.621Z,8.97
2023-03-22T05:17:25.213Z,9.03
2023-03-22T05:19:55.220Z,8.47
2023-03-22T05:22:22.653Z,8.33
2023-03-22T05:24:51.962Z,8.83
2023-03-22T05:27:31.909Z,8.30
2023-03-22T05:30:07.595Z,8.47
2023-03-22T05:32:44.543Z,9.77
2023-03-22T05:35:13.161Z,9.13
2023-03-22T05:37:45.782Z,10.30
2023-03-22T05:40:15.817Z,9.67
2023-03-22T05:42:45.013Z,10.27
2023-03-22T05:45:21.344Z,9.70
2023-03-22T05:47:57.627Z,10.10
2023-03-22T05:50:27.157Z,11.00
2023-03-22T05:52:54.419Z,10.83
2023-03-22T05:55:48.284Z,11.47
2023-03-22T05:58:19.332Z,10.40
2023-03-22T06:00:51.558Z,10.07
2023-03-22T06:03:39.702Z,10.97
2023-03-22T06:06:14.721Z,12.23
2023-03-22T06:08:51.084Z,11.57
2023-03-22T06:11:19.620Z,10.37
2023-03-22T06:13:47.320Z,9.90
2023-03-22T06:16:16.722Z,10.80
2023-03-22T06:18:44.588Z,9.60
2023-03-22T06:21:13.020Z,10.70
2023-03-22T06:23:41.705Z,9.90
2023-03-22T06:26:11.628Z,9.67
2023-03-22T06:28:40.811Z,10.17
2023-03-22T06:31:10.300Z,11.30
2023-03-22T06:33:53.119Z,12.77
2023-03-22T06:36:35.642Z,10.37
2023-03-22T06:39:16.606Z,9.97
2023-03-22T06:41:45.727Z,9.87
2023-03-22T06:44:13.020Z,12.83
2023-03-22T06:47:04.728Z,11.40
2023-03-22T06:49:51.075Z,11.73
2023-03-22T06:52:26.238Z,10.30
2023-03-22T06:54:53.556Z,10.83
2023-03-22T06:57:21.164Z,9.60
2023-03-22T06:59:48.577Z,9.87
2023-03-22T07:02:15.953Z,9.83
2023-03-22T07:05:01.975Z,9.50
2023-03-22T07:07:29.565Z,9.83
2023-03-22T07:09:57.211Z,9.87
2023-03-22T07:12:25.095Z,10.57
2023-03-22T07:14:52.709Z,9.53
2023-03-22T07:17:41.868Z,12.10
2023-03-22T07:20:09.931Z,10.60
2023-03-22T07:22:37.385Z,9.80
2023-03-22T07:25:05.165Z,9.80
2023-03-22T07:27:33.654Z,9.07
2023-03-22T07:30:01.172Z,9.13
2023-03-22T07:32:29.813Z,8.47
2023-03-22T07:35:06.023Z,8.40
2023-03-22T07:37:33.513Z,9.43
2023-03-22T07:40:04.221Z,9.47
2023-03-22T07:42:31.900Z,9.10
2023-03-22T07:45:22.271Z,9.03
2023-03-22T07:48:11.917Z,8.97
2023-03-22T07:51:11.459Z,8.83
2023-03-22T07:53:38.828Z,8.90
2023-03-22T07:56:07.267Z,8.60
2023-03-22T07:58:35.576Z,9.30
2023-03-22T08:01:09.191Z,9.57
2023-03-22T08:03:55.110Z,9.13
2023-03-22T08:06:42.876Z,9.23
2023-03-22T08:09:11.907Z,9.83
2023-03-22T08:11:39.216Z,9.60
2023-03-22T08:14:06.528Z,10.00
2023-03-22T08:16:38.828Z,12.40
2023-03-22T08:19:06.839Z,9.77
2023-03-22T08:21:37.407Z,9.97
2023-03-22T08:24:07.885Z,8.90
2023-03-22T08:26:52.301Z,9.20
2023-03-22T08:29:33.354Z,9.23
2023-03-22T08:32:02.686Z,9.60
2023-03-22T08:34:31.502Z,9.07
2023-03-22T08:36:58.855Z,8.97
2023-03-22T08:39:26.258Z,8.67
2023-03-22T08:42:17.292Z,8.10
2023-03-22T08:44:44.482Z,8.53
2023-03-22T08:47:11.800Z,9.17
2023-03-22T08:49:42.005Z,8.30
2023-03-22T08:52:19.896Z,7.47
2023-03-22T08:55:08.640Z,8.00
2023-03-22T08:58:12.920Z,7.30
2023-03-22T09:01:14.912Z,7.07
2023-03-22T09:03:50.524Z,6.83
2023-03-22T09:06:17.957Z,7.57
2023-03-22T09:08:46.569Z,8.07
2023-03-22T09:11:17.941Z,8.23
2023-03-22T09:13:49.037Z,7.63
2023-03-22T09:16:17.250Z,7.87
2023-03-22T09:18:46.038Z,7.90
2023-03-22T09:21:17.480Z,8.00
2023-03-22T09:24:01.537Z,6.80
2023-03-22T09:26:39.496Z,6.43
2023-03-22T09:29:07.816Z,6.90
2023-03-22T09:31:35.301Z,6.63
2023-03-22T09:34:15.642Z,7.10
2023-03-22T09:36:43.074Z,6.30
2023-03-22T09:39:11.616Z,6.43
2023-03-22T09:41:48.916Z,5.90
2023-03-22T09:44:30.137Z,7.10
2023-03-22T09:47:00.264Z,6.20
2023-03-22T09:49:46.979Z,6.40
2023-03-22T09:52:19.819Z,6.53
2023-03-22T09:54:47.783Z,5.90
2023-03-22T09:57:14.940Z,5.97
2023-03-22T09:59:48.067Z,5.50
2023-03-22T10:02:36.984Z,5.07
2023-03-22T10:05:26.223Z,5.67
2023-03-22T10:08:12.706Z,5.33
2023-03-22T10:10:43.707Z,4.90
2023-03-22T10:13:36.283Z,5.27
2023-03-22T10:16:06.880Z,5.20
2023-03-22T10:18:40.904Z,5.72
2023-03-22T10:21:17.969Z,5.18
2023-03-22T10:23:57.117Z,5.05
2023-03-22T10:26:36.374Z,5.47
2023-03-22T10:29:12.545Z,5.13
2023-03-22T10:31:43.853Z,4.47
2023-03-22T10:34:29.451Z,4.25
2023-03-22T10:37:01.312Z,4.35
2023-03-22T10:39:41.661Z,4.00
2023-03-22T10:42:15.122Z,3.88
2023-03-22T10:44:58.764Z,4.03
2023-03-22T10:47:41.544Z,4.15
2023-03-22T10:50:22.115Z,3.72
2023-03-22T10:53:12.114Z,3.97
2023-03-22T10:55:43.975Z,3.83
2023-03-22T10:58:13.285Z,3.90
2023-03-22T11:00:54.770Z,4.05
2023-03-22T11:03:38.467Z,4.15
2023-03-22T11:06:23.808Z,4.10
2023-03-22T11:09:01.898Z,3.88
2023-03-22T11:11:34.734Z,3.80
2023-03-22T11:14:15.450Z,4.32
2023-03-22T11:16:55.043Z,4.63
2023-03-22T11:19:34.159Z,4.03
2023-03-22T11:22:04.931Z,3.67
2023-03-22T11:24:34.704Z,3.80
2023-03-22T11:27:19.765Z,3.42
2023-03-22T11:29:50.583Z,3.60
2023-03-22T11:32:35.574Z,3.40
2023-03-22T11:35:13.885Z,2.30
2023-03-22T11:37:43.456Z,2.55
2023-03-22T11:40:18.897Z,2.60
2023-03-22T11:42:47.748Z,1.73
2023-03-22T11:45:20.865Z,1.85
2023-03-22T11:47:48.157Z,1.55
2023-03-22T11:50:32.776Z,2.08
2023-03-22T11:53:03.761Z,1.40
2023-03-22T11:55:34.727Z,1.38
2023-03-22T11:58:06.650Z,1.30
2023-03-22T12:00:39.069Z,1.67
2023-03-22T12:03:14.842Z,1.80
2023-03-22T12:05:49.203Z,2.05
2023-03-22T12:08:22.265Z,1.35
2023-03-22T12:11:01.612Z,1.30
2023-03-22T12:13:46.895Z,1.40
2023-03-22T12:16:22.941Z,1.40
2023-03-22T12:19:11.809Z,1.60
2023-03-22T12:21:40.795Z,1.38
2023-03-22T12:24:25.422Z,1.33
2023-03-22T12:27:00.564Z,2.53
2023-03-22T12:29:30.409Z,2.63
2023-03-22T12:32:03.547Z,2.45
2023-03-22T12:34:47.567Z,2.60
2023-03-22T12:37:29.667Z,2.63
2023-03-22T12:40:22.896Z,2.47
2023-03-22T12:43:08.305Z,3.00
2023-03-22T12:45:44.235Z,1.85
2023-03-22T12:48:47.903Z,2.20
2023-03-22T12:51:16.170Z,2.20
2023-03-22T12:53:50.777Z,2.47
2023-03-22T12:56:22.090Z,1.75
2023-03-22T12:58:54.414Z,2.20
2023-03-22T13:01:31.295Z,1.70
2023-03-22T13:03:59.684Z,2.00
2023-03-22T13:06:45.644Z,1.70
2023-03-22T13:09:19.465Z,1.92
2023-03-22T13:12:16.673Z,2.03
2023-03-22T13:14:52.799Z,2.28
2023-03-22T13:17:42.363Z,2.00
2023-03-22T13:20:12.436Z,2.28
2023-03-22T13:22:41.830Z,2.30
2023-03-22T13:25:17.193Z,2.40
2023-03-22T13:27:54.888Z,2.65
2023-03-22T13:30:24.056Z,2.88
2023-03-22T13:32:56.455Z,3.03
2023-03-22T13:35:28.691Z,2.00
2023-03-22T13:38:08.664Z,2.20
2023-03-22T13:41:04.485Z,1.90
2023-03-22T13:43:44.185Z,2.50
2023-03-22T13:46:21.081Z,2.58
2023-03-22T13:48:48.805Z,2.70
2023-03-22T13:51:22.841Z,2.30
2023-03-22T13:53:52.875Z,2.63
2023-03-22T13:56:33.858Z,2.38
2023-03-22T13:59:04.441Z,2.60
2023-03-22T14:01:47.909Z,2.58
2023-03-22T14:04:22.927Z,2.80
2023-03-22T14:07:00.313Z,3.33
2023-03-22T14:09:40.124Z,3.20
2023-03-22T14:12:31.588Z,3.22
2023-03-22T14:15:03.223Z,3.10
2023-03-22T14:17:38.583Z,3.25
2023-03-22T14:20:10.805Z,2.60
